sensor_id;sensor_type;location;lat;lon;timestamp;P1;durP1;ratioP1;P2;durP2;ratioP2
70165;SDS011;57541;47.408;18.822;2023-05-07T00:00:16;10.40;;;6.63;;
70165;SDS011;57541;47.408;18.822;2023-05-07T00:00:50;10.65;;;6.50;;
70165;SDS011;57541;47.408;18.822;2023-05-07T00:01:22;9.82;;;6.63;;
70165;SDS011;57541;47.408;18.822;2023-05-07T00:01:54;10.43;;;6.20;;
70165;SDS011;57541;47.408;18.822;2023-05-07T00:02:25;9.75;;;6.40;;
70165;SDS011;57541;47.408;18.822;2023-05-07T00:02:57;9.43;;;6.05;;
70165;SDS011;57541;47.408;18.822;2023-05-07T00:03:29;10.05;;;6.15;;
70165;SDS011;57541;47.408;18.822;2023-05-07T00:04:01;9.30;;;6.25;;
70165;SDS011;57541;47.408;18.822;2023-05-07T00:04:33;10.93;;;6.53;;
70165;SDS011;57541;47.408;18.822;2023-05-07T00:05:09;9.25;;;5.88;;
70165;SDS011;57541;47.408;18.822;2023-05-07T00:05:41;9.60;;;5.60;;
70165;SDS011;57541;47.408;18.822;2023-05-07T00:06:12;9.10;;;5.45;;
70165;SDS011;57541;47.408;18.822;2023-05-07T00:06:44;10.13;;;5.93;;
70165;SDS011;57541;47.408;18.822;2023-05-07T00:07:16;10.23;;;5.60;;
70165;SDS011;57541;47.408;18.822;2023-05-07T00:07:47;8.80;;;5.60;;
70165;SDS011;57541;47.408;18.822;2023-05-07T00:08:19;10.32;;;5.85;;
70165;SDS011;57541;47.408;18.822;2023-05-07T00:08:51;10.82;;;6.53;;
70165;SDS011;57541;47.408;18.822;2023-05-07T00:09:23;9.18;;;6.15;;
70165;SDS011;57541;47.408;18.822;2023-05-07T00:09:54;8.88;;;5.80;;
70165;SDS011;57541;47.408;18.822;2023-05-07T00:10:26;9.55;;;5.93;;
70165;SDS011;57541;47.408;18.822;2023-05-07T00:11:00;8.73;;;6.23;;
70165;SDS011;57541;47.408;18.822;2023-05-07T00:11:31;10.52;;;6.13;;
70165;SDS011;57541;47.408;18.822;2023-05-07T00:12:06;9.63;;;5.65;;
70165;SDS011;57541;47.408;18.822;2023-05-07T00:12:38;10.15;;;6.50;;
70165;SDS011;57541;47.408;18.822;2023-05-07T00:13:11;8.88;;;5.75;;
70165;SDS011;57541;47.408;18.822;2023-05-07T00:13:43;9.88;;;6.28;;
70165;SDS011;57541;47.408;18.822;2023-05-07T00:14:15;8.90;;;6.05;;
70165;SDS011;57541;47.408;18.822;2023-05-07T00:14:46;11.10;;;6.55;;
70165;SDS011;57541;47.408;18.822;2023-05-07T00:15:18;9.25;;;6.00;;
70165;SDS011;57541;47.408;18.822;2023-05-07T00:15:50;10.13;;;6.50;;
70165;SDS011;57541;47.408;18.822;2023-05-07T00:16:21;11.00;;;6.90;;
70165;SDS011;57541;47.408;18.822;2023-05-07T00:16:53;8.48;;;5.93;;
70165;SDS011;57541;47.408;18.822;2023-05-07T00:17:25;9.57;;;6.00;;
70165;SDS011;57541;47.408;18.822;2023-05-07T00:17:57;9.35;;;6.13;;
70165;SDS011;57541;47.408;18.822;2023-05-07T00:18:30;11.30;;;6.75;;
70165;SDS011;57541;47.408;18.822;2023-05-07T00:19:03;9.27;;;6.20;;
70165;SDS011;57541;47.408;18.822;2023-05-07T00:19:35;9.35;;;6.32;;
70165;SDS011;57541;47.408;18.822;2023-05-07T00:20:07;9.60;;;6.40;;
70165;SDS011;57541;47.408;18.822;2023-05-07T00:20:39;10.30;;;6.57;;
70165;SDS011;57541;47.408;18.822;2023-05-07T00:21:11;9.05;;;6.15;;
70165;SDS011;57541;47.408;18.822;2023-05-07T00:21:43;10.03;;;6.50;;
70165;SDS011;57541;47.408;18.822;2023-05-07T00:22:14;11.77;;;6.25;;
70165;SDS011;57541;47.408;18.822;2023-05-07T00:22:46;9.82;;;6.22;;
70165;SDS011;57541;47.408;18.822;2023-05-07T00:23:18;11.23;;;6.47;;
70165;SDS011;57541;47.408;18.822;2023-05-07T00:23:49;9.52;;;5.88;;
70165;SDS011;57541;47.408;18.822;2023-05-07T00:24:21;9.13;;;6.20;;
70165;SDS011;57541;47.408;18.822;2023-05-07T00:24:53;9.50;;;5.90;;
70165;SDS011;57541;47.408;18.822;2023-05-07T00:25:25;9.30;;;5.90;;
70165;SDS011;57541;47.408;18.822;2023-05-07T00:25:56;9.05;;;5.85;;
70165;SDS011;57541;47.408;18.822;2023-05-07T00:26:28;9.45;;;5.60;;
70165;SDS011;57541;47.408;18.822;2023-05-07T00:27:00;9.30;;;6.27;;
70165;SDS011;57541;47.408;18.822;2023-05-07T00:27:31;9.02;;;6.20;;
70165;SDS011;57541;47.408;18.822;2023-05-07T00:28:03;9.80;;;5.75;;
70165;SDS011;57541;47.408;18.822;2023-05-07T00:28:35;10.38;;;5.80;;
70165;SDS011;57541;47.408;18.822;2023-05-07T00:29:06;10.15;;;5.88;;
70165;SDS011;57541;47.408;18.822;2023-05-07T00:29:38;9.70;;;6.00;;
70165;SDS011;57541;47.408;18.822;2023-05-07T00:30:10;8.75;;;5.85;;
70165;SDS011;57541;47.408;18.822;2023-05-07T00:30:43;8.32;;;5.47;;
70165;SDS011;57541;47.408;18.822;2023-05-07T00:31:14;9.20;;;6.15;;
70165;SDS011;57541;47.408;18.822;2023-05-07T00:31:46;9.65;;;5.70;;
70165;SDS011;57541;47.408;18.822;2023-05-07T00:32:18;9.73;;;6.20;;
70165;SDS011;57541;47.408;18.822;2023-05-07T00:32:49;10.82;;;5.63;;
70165;SDS011;57541;47.408;18.822;2023-05-07T00:33:22;9.57;;;5.78;;
70165;SDS011;57541;47.408;18.822;2023-05-07T00:33:53;9.70;;;6.40;;
70165;SDS011;57541;47.408;18.822;2023-05-07T00:34:25;9.95;;;6.10;;
70165;SDS011;57541;47.408;18.822;2023-05-07T00:34:57;11.35;;;5.93;;
70165;SDS011;57541;47.408;18.822;2023-05-07T00:35:29;9.77;;;6.40;;
70165;SDS011;57541;47.408;18.822;2023-05-07T00:36:01;9.23;;;6.13;;
70165;SDS011;57541;47.408;18.822;2023-05-07T00:36:33;10.13;;;6.45;;
70165;SDS011;57541;47.408;18.822;2023-05-07T00:37:04;11.02;;;5.97;;
70165;SDS011;57541;47.408;18.822;2023-05-07T00:37:38;10.13;;;5.93;;
70165;SDS011;57541;47.408;18.822;2023-05-07T00:38:10;9.27;;;5.78;;
70165;SDS011;57541;47.408;18.822;2023-05-07T00:38:41;9.13;;;6.32;;
70165;SDS011;57541;47.408;18.822;2023-05-07T00:39:13;10.85;;;6.53;;
70165;SDS011;57541;47.408;18.822;2023-05-07T00:39:44;11.63;;;5.95;;
70165;SDS011;57541;47.408;18.822;2023-05-07T00:40:16;9.60;;;6.50;;
70165;SDS011;57541;47.408;18.822;2023-05-07T00:40:48;8.90;;;6.07;;
70165;SDS011;57541;47.408;18.822;2023-05-07T00:41:19;9.32;;;6.07;;
70165;SDS011;57541;47.408;18.822;2023-05-07T00:41:51;9.60;;;6.43;;
70165;SDS011;57541;47.408;18.822;2023-05-07T00:42:23;10.13;;;6.00;;
70165;SDS011;57541;47.408;18.822;2023-05-07T00:42:55;9.50;;;6.10;;
70165;SDS011;57541;47.408;18.822;2023-05-07T00:43:29;10.77;;;6.47;;
70165;SDS011;57541;47.408;18.822;2023-05-07T00:44:01;10.23;;;6.40;;
70165;SDS011;57541;47.408;18.822;2023-05-07T00:44:33;10.10;;;6.20;;
70165;SDS011;57541;47.408;18.822;2023-05-07T00:45:05;8.77;;;6.30;;
70165;SDS011;57541;47.408;18.822;2023-05-07T00:45:39;9.38;;;6.00;;
70165;SDS011;57541;47.408;18.822;2023-05-07T00:46:11;10.50;;;6.15;;
70165;SDS011;57541;47.408;18.822;2023-05-07T00:46:43;9.10;;;6.30;;
70165;SDS011;57541;47.408;18.822;2023-05-07T00:47:16;9.80;;;6.15;;
70165;SDS011;57541;47.408;18.822;2023-05-07T00:47:48;9.55;;;6.05;;
70165;SDS011;57541;47.408;18.822;2023-05-07T00:48:20;9.33;;;5.97;;
70165;SDS011;57541;47.408;18.822;2023-05-07T00:48:51;9.70;;;6.10;;
70165;SDS011;57541;47.408;18.822;2023-05-07T00:49:26;8.70;;;5.85;;
70165;SDS011;57541;47.408;18.822;2023-05-07T00:50:11;11.57;;;6.30;;
70165;SDS011;57541;47.408;18.822;2023-05-07T00:50:44;12.90;;;6.07;;
70165;SDS011;57541;47.408;18.822;2023-05-07T00:51:17;10.38;;;5.93;;
70165;SDS011;57541;47.408;18.822;2023-05-07T00:51:49;9.55;;;6.10;;
70165;SDS011;57541;47.408;18.822;2023-05-07T00:52:21;8.93;;;5.95;;
70165;SDS011;57541;47.408;18.822;2023-05-07T00:52:57;9.95;;;6.38;;
70165;SDS011;57541;47.408;18.822;2023-05-07T00:53:29;10.32;;;6.47;;
70165;SDS011;57541;47.408;18.822;2023-05-07T00:54:02;8.70;;;6.07;;
70165;SDS011;57541;47.408;18.822;2023-05-07T00:54:34;10.38;;;6.80;;
70165;SDS011;57541;47.408;18.822;2023-05-07T00:55:06;10.73;;;6.57;;
70165;SDS011;57541;47.408;18.822;2023-05-07T00:55:38;9.18;;;6.50;;
70165;SDS011;57541;47.408;18.822;2023-05-07T00:56:10;10.93;;;6.55;;
70165;SDS011;57541;47.408;18.822;2023-05-07T00:56:43;10.10;;;6.55;;
70165;SDS011;57541;47.408;18.822;2023-05-07T00:57:16;11.25;;;6.53;;
70165;SDS011;57541;47.408;18.822;2023-05-07T00:57:47;10.85;;;6.97;;
70165;SDS011;57541;47.408;18.822;2023-05-07T00:58:21;11.18;;;6.65;;
70165;SDS011;57541;47.408;18.822;2023-05-07T00:58:53;13.15;;;6.07;;
70165;SDS011;57541;47.408;18.822;2023-05-07T00:59:26;9.80;;;6.40;;
70165;SDS011;57541;47.408;18.822;2023-05-07T00:59:58;10.90;;;6.32;;
70165;SDS011;57541;47.408;18.822;2023-05-07T01:00:29;8.98;;;6.20;;
70165;SDS011;57541;47.408;18.822;2023-05-07T01:01:01;9.52;;;6.30;;
70165;SDS011;57541;47.408;18.822;2023-05-07T01:01:33;10.63;;;6.93;;
70165;SDS011;57541;47.408;18.822;2023-05-07T01:02:05;10.20;;;6.78;;
70165;SDS011;57541;47.408;18.822;2023-05-07T01:02:37;10.23;;;6.47;;
70165;SDS011;57541;47.408;18.822;2023-05-07T01:03:09;10.48;;;6.72;;
70165;SDS011;57541;47.408;18.822;2023-05-07T01:03:42;10.57;;;6.97;;
70165;SDS011;57541;47.408;18.822;2023-05-07T01:04:14;9.32;;;6.00;;
70165;SDS011;57541;47.408;18.822;2023-05-07T01:04:46;9.87;;;6.83;;
70165;SDS011;57541;47.408;18.822;2023-05-07T01:05:18;10.55;;;6.28;;
70165;SDS011;57541;47.408;18.822;2023-05-07T01:05:52;10.35;;;6.43;;
70165;SDS011;57541;47.408;18.822;2023-05-07T01:06:25;11.30;;;7.15;;
70165;SDS011;57541;47.408;18.822;2023-05-07T01:06:59;10.27;;;6.47;;
70165;SDS011;57541;47.408;18.822;2023-05-07T01:07:33;11.32;;;6.85;;
70165;SDS011;57541;47.408;18.822;2023-05-07T01:08:06;10.93;;;6.72;;
70165;SDS011;57541;47.408;18.822;2023-05-07T01:08:37;9.75;;;6.30;;
70165;SDS011;57541;47.408;18.822;2023-05-07T01:09:11;10.45;;;6.60;;
70165;SDS011;57541;47.408;18.822;2023-05-07T01:09:44;10.23;;;6.30;;
70165;SDS011;57541;47.408;18.822;2023-05-07T01:10:15;11.63;;;7.23;;
70165;SDS011;57541;47.408;18.822;2023-05-07T01:10:49;9.95;;;6.28;;
70165;SDS011;57541;47.408;18.822;2023-05-07T01:11:20;12.40;;;6.65;;
70165;SDS011;57541;47.408;18.822;2023-05-07T01:11:52;9.98;;;6.45;;
70165;SDS011;57541;47.408;18.822;2023-05-07T01:12:25;10.18;;;6.13;;
70165;SDS011;57541;47.408;18.822;2023-05-07T01:12:59;10.25;;;6.28;;
70165;SDS011;57541;47.408;18.822;2023-05-07T01:13:31;10.07;;;6.57;;
70165;SDS011;57541;47.408;18.822;2023-05-07T01:14:04;10.38;;;7.15;;
70165;SDS011;57541;47.408;18.822;2023-05-07T01:14:36;10.05;;;6.60;;
70165;SDS011;57541;47.408;18.822;2023-05-07T01:15:08;10.68;;;6.88;;
70165;SDS011;57541;47.408;18.822;2023-05-07T01:15:41;10.23;;;6.70;;
70165;SDS011;57541;47.408;18.822;2023-05-07T01:16:13;10.57;;;6.65;;
70165;SDS011;57541;47.408;18.822;2023-05-07T01:16:46;10.63;;;6.82;;
70165;SDS011;57541;47.408;18.822;2023-05-07T01:17:19;10.43;;;6.53;;
70165;SDS011;57541;47.408;18.822;2023-05-07T01:17:50;12.80;;;6.60;;
70165;SDS011;57541;47.408;18.822;2023-05-07T01:18:22;10.48;;;6.43;;
70165;SDS011;57541;47.408;18.822;2023-05-07T01:18:54;10.82;;;6.50;;
70165;SDS011;57541;47.408;18.822;2023-05-07T01:19:26;10.48;;;6.20;;
70165;SDS011;57541;47.408;18.822;2023-05-07T01:20:01;10.82;;;6.50;;
70165;SDS011;57541;47.408;18.822;2023-05-07T01:20:33;12.50;;;6.60;;
70165;SDS011;57541;47.408;18.822;2023-05-07T01:21:05;10.47;;;6.87;;
70165;SDS011;57541;47.408;18.822;2023-05-07T01:21:37;10.52;;;6.88;;
70165;SDS011;57541;47.408;18.822;2023-05-07T01:22:10;10.65;;;6.63;;
70165;SDS011;57541;47.408;18.822;2023-05-07T01:22:42;9.23;;;6.30;;
70165;SDS011;57541;47.408;18.822;2023-05-07T01:23:14;10.45;;;6.50;;
70165;SDS011;57541;47.408;18.822;2023-05-07T01:23:46;10.43;;;6.20;;
70165;SDS011;57541;47.408;18.822;2023-05-07T01:24:18;9.77;;;6.20;;
70165;SDS011;57541;47.408;18.822;2023-05-07T01:24:50;11.05;;;5.93;;
70165;SDS011;57541;47.408;18.822;2023-05-07T01:25:22;9.13;;;6.22;;
70165;SDS011;57541;47.408;18.822;2023-05-07T01:25:54;10.25;;;6.65;;
70165;SDS011;57541;47.408;18.822;2023-05-07T01:26:27;8.73;;;5.83;;
70165;SDS011;57541;47.408;18.822;2023-05-07T01:26:58;12.60;;;6.80;;
70165;SDS011;57541;47.408;18.822;2023-05-07T01:27:30;10.77;;;6.72;;
70165;SDS011;57541;47.408;18.822;2023-05-07T01:28:02;12.00;;;7.20;;
70165;SDS011;57541;47.408;18.822;2023-05-07T01:28:33;12.13;;;7.60;;
70165;SDS011;57541;47.408;18.822;2023-05-07T01:29:05;10.52;;;7.05;;
70165;SDS011;57541;47.408;18.822;2023-05-07T01:29:37;10.88;;;7.35;;
70165;SDS011;57541;47.408;18.822;2023-05-07T01:30:09;11.25;;;6.97;;
70165;SDS011;57541;47.408;18.822;2023-05-07T01:30:42;11.43;;;7.40;;
70165;SDS011;57541;47.408;18.822;2023-05-07T01:31:23;10.38;;;6.80;;
70165;SDS011;57541;47.408;18.822;2023-05-07T01:31:56;10.53;;;6.77;;
70165;SDS011;57541;47.408;18.822;2023-05-07T01:32:37;10.75;;;7.03;;
70165;SDS011;57541;47.408;18.822;2023-05-07T01:33:20;11.82;;;7.20;;
70165;SDS011;57541;47.408;18.822;2023-05-07T01:33:55;10.65;;;7.05;;
70165;SDS011;57541;47.408;18.822;2023-05-07T01:34:30;10.45;;;7.10;;
70165;SDS011;57541;47.408;18.822;2023-05-07T01:35:05;11.20;;;6.35;;
70165;SDS011;57541;47.408;18.822;2023-05-07T01:35:39;10.15;;;6.72;;
70165;SDS011;57541;47.408;18.822;2023-05-07T01:36:13;10.38;;;6.95;;
70165;SDS011;57541;47.408;18.822;2023-05-07T01:36:45;9.80;;;6.68;;
70165;SDS011;57541;47.408;18.822;2023-05-07T01:37:18;9.93;;;6.50;;
70165;SDS011;57541;47.408;18.822;2023-05-07T01:37:50;10.77;;;6.40;;
70165;SDS011;57541;47.408;18.822;2023-05-07T01:38:22;10.25;;;6.53;;
70165;SDS011;57541;47.408;18.822;2023-05-07T01:38:55;10.25;;;6.90;;
70165;SDS011;57541;47.408;18.822;2023-05-07T01:39:29;11.10;;;6.68;;
70165;SDS011;57541;47.408;18.822;2023-05-07T01:40:02;11.13;;;6.80;;
70165;SDS011;57541;47.408;18.822;2023-05-07T01:40:34;9.63;;;6.05;;
70165;SDS011;57541;47.408;18.822;2023-05-07T01:41:06;9.93;;;6.45;;
70165;SDS011;57541;47.408;18.822;2023-05-07T01:41:38;10.52;;;6.57;;
70165;SDS011;57541;47.408;18.822;2023-05-07T01:42:10;10.45;;;6.78;;
70165;SDS011;57541;47.408;18.822;2023-05-07T01:42:43;10.30;;;6.68;;
70165;SDS011;57541;47.408;18.822;2023-05-07T01:43:15;12.93;;;6.93;;
70165;SDS011;57541;47.408;18.822;2023-05-07T01:43:47;9.63;;;5.97;;
70165;SDS011;57541;47.408;18.822;2023-05-07T01:44:18;11.52;;;6.80;;
70165;SDS011;57541;47.408;18.822;2023-05-07T01:44:50;10.02;;;6.13;;
70165;SDS011;57541;47.408;18.822;2023-05-07T01:45:22;11.38;;;6.78;;
70165;SDS011;57541;47.408;18.822;2023-05-07T01:45:54;9.48;;;6.45;;
70165;SDS011;57541;47.408;18.822;2023-05-07T01:46:26;10.10;;;6.10;;
70165;SDS011;57541;47.408;18.822;2023-05-07T01:46:59;9.43;;;6.22;;
70165;SDS011;57541;47.408;18.822;2023-05-07T01:47:31;9.10;;;5.75;;
70165;SDS011;57541;47.408;18.822;2023-05-07T01:48:04;9.45;;;6.10;;
70165;SDS011;57541;47.408;18.822;2023-05-07T01:48:38;9.33;;;6.00;;
70165;SDS011;57541;47.408;18.822;2023-05-07T01:49:10;10.57;;;5.97;;
70165;SDS011;57541;47.408;18.822;2023-05-07T01:49:41;8.77;;;5.78;;
70165;SDS011;57541;47.408;18.822;2023-05-07T01:50:14;10.25;;;6.15;;
70165;SDS011;57541;47.408;18.822;2023-05-07T01:50:48;10.65;;;6.53;;
70165;SDS011;57541;47.408;18.822;2023-05-07T01:51:20;9.13;;;5.63;;
70165;SDS011;57541;47.408;18.822;2023-05-07T01:51:53;12.23;;;6.57;;
70165;SDS011;57541;47.408;18.822;2023-05-07T01:52:25;9.68;;;5.93;;
70165;SDS011;57541;47.408;18.822;2023-05-07T01:52:56;10.60;;;6.55;;
70165;SDS011;57541;47.408;18.822;2023-05-07T01:53:28;8.93;;;6.05;;
70165;SDS011;57541;47.408;18.822;2023-05-07T01:54:00;9.43;;;6.33;;
70165;SDS011;57541;47.408;18.822;2023-05-07T01:54:32;8.65;;;5.20;;
70165;SDS011;57541;47.408;18.822;2023-05-07T01:55:04;9.32;;;6.28;;
70165;SDS011;57541;47.408;18.822;2023-05-07T01:55:37;10.45;;;6.35;;
70165;SDS011;57541;47.408;18.822;2023-05-07T01:56:08;9.85;;;6.43;;
70165;SDS011;57541;47.408;18.822;2023-05-07T01:56:40;10.52;;;6.85;;
70165;SDS011;57541;47.408;18.822;2023-05-07T01:57:12;9.50;;;6.30;;
70165;SDS011;57541;47.408;18.822;2023-05-07T01:57:43;9.80;;;6.43;;
70165;SDS011;57541;47.408;18.822;2023-05-07T01:58:15;12.10;;;6.50;;
70165;SDS011;57541;47.408;18.822;2023-05-07T01:58:47;10.80;;;6.70;;
70165;SDS011;57541;47.408;18.822;2023-05-07T01:59:19;11.70;;;6.40;;
70165;SDS011;57541;47.408;18.822;2023-05-07T01:59:50;10.18;;;6.20;;
70165;SDS011;57541;47.408;18.822;2023-05-07T02:00:22;10.48;;;6.40;;
70165;SDS011;57541;47.408;18.822;2023-05-07T02:00:54;11.60;;;6.63;;
70165;SDS011;57541;47.408;18.822;2023-05-07T02:01:25;10.10;;;6.78;;
70165;SDS011;57541;47.408;18.822;2023-05-07T02:01:57;9.55;;;5.85;;
70165;SDS011;57541;47.408;18.822;2023-05-07T02:02:29;9.73;;;6.55;;
70165;SDS011;57541;47.408;18.822;2023-05-07T02:03:01;10.15;;;6.47;;
70165;SDS011;57541;47.408;18.822;2023-05-07T02:03:33;9.77;;;6.00;;
70165;SDS011;57541;47.408;18.822;2023-05-07T02:04:04;9.95;;;6.10;;
70165;SDS011;57541;47.408;18.822;2023-05-07T02:04:36;10.40;;;6.80;;
70165;SDS011;57541;47.408;18.822;2023-05-07T02:05:08;8.57;;;5.72;;
70165;SDS011;57541;47.408;18.822;2023-05-07T02:05:40;9.80;;;5.97;;
70165;SDS011;57541;47.408;18.822;2023-05-07T02:06:12;9.38;;;5.70;;
70165;SDS011;57541;47.408;18.822;2023-05-07T02:06:44;9.63;;;6.20;;
70165;SDS011;57541;47.408;18.822;2023-05-07T02:07:15;9.68;;;5.63;;
70165;SDS011;57541;47.408;18.822;2023-05-07T02:07:47;9.48;;;6.20;;
70165;SDS011;57541;47.408;18.822;2023-05-07T02:08:19;9.10;;;6.43;;
70165;SDS011;57541;47.408;18.822;2023-05-07T02:08:50;9.85;;;6.40;;
70165;SDS011;57541;47.408;18.822;2023-05-07T02:09:22;9.00;;;6.03;;
70165;SDS011;57541;47.408;18.822;2023-05-07T02:09:54;9.17;;;6.00;;
70165;SDS011;57541;47.408;18.822;2023-05-07T02:10:28;10.02;;;6.03;;
70165;SDS011;57541;47.408;18.822;2023-05-07T02:11:00;9.57;;;6.00;;
70165;SDS011;57541;47.408;18.822;2023-05-07T02:11:32;9.38;;;5.97;;
70165;SDS011;57541;47.408;18.822;2023-05-07T02:12:04;9.43;;;6.13;;
70165;SDS011;57541;47.408;18.822;2023-05-07T02:12:36;9.52;;;5.70;;
70165;SDS011;57541;47.408;18.822;2023-05-07T02:13:07;9.48;;;5.97;;
70165;SDS011;57541;47.408;18.822;2023-05-07T02:13:39;9.10;;;6.03;;
70165;SDS011;57541;47.408;18.822;2023-05-07T02:14:11;9.98;;;5.85;;
70165;SDS011;57541;47.408;18.822;2023-05-07T02:14:42;9.75;;;5.93;;
70165;SDS011;57541;47.408;18.822;2023-05-07T02:15:14;9.80;;;6.47;;
70165;SDS011;57541;47.408;18.822;2023-05-07T02:15:46;8.85;;;5.63;;
70165;SDS011;57541;47.408;18.822;2023-05-07T02:16:21;8.63;;;6.22;;
70165;SDS011;57541;47.408;18.822;2023-05-07T02:16:54;14.18;;;6.10;;
70165;SDS011;57541;47.408;18.822;2023-05-07T02:17:26;8.95;;;5.43;;
70165;SDS011;57541;47.408;18.822;2023-05-07T02:17:59;7.97;;;5.38;;
70165;SDS011;57541;47.408;18.822;2023-05-07T02:18:31;9.93;;;5.75;;
70165;SDS011;57541;47.408;18.822;2023-05-07T02:19:03;8.50;;;5.70;;
70165;SDS011;57541;47.408;18.822;2023-05-07T02:19:34;9.15;;;5.90;;
70165;SDS011;57541;47.408;18.822;2023-05-07T02:20:06;8.77;;;5.68;;
70165;SDS011;57541;47.408;18.822;2023-05-07T02:20:44;9.87;;;5.73;;
70165;SDS011;57541;47.408;18.822;2023-05-07T02:21:16;10.30;;;6.43;;
70165;SDS011;57541;47.408;18.822;2023-05-07T02:21:47;9.20;;;6.30;;
70165;SDS011;57541;47.408;18.822;2023-05-07T02:22:19;9.73;;;6.25;;
70165;SDS011;57541;47.408;18.822;2023-05-07T02:22:51;10.63;;;7.07;;
70165;SDS011;57541;47.408;18.822;2023-05-07T02:23:23;10.68;;;6.10;;
70165;SDS011;57541;47.408;18.822;2023-05-07T02:23:55;10.68;;;6.35;;
70165;SDS011;57541;47.408;18.822;2023-05-07T02:24:26;9.52;;;6.38;;
70165;SDS011;57541;47.408;18.822;2023-05-07T02:24:58;9.93;;;6.65;;
70165;SDS011;57541;47.408;18.822;2023-05-07T02:25:30;10.93;;;6.38;;
70165;SDS011;57541;47.408;18.822;2023-05-07T02:26:01;10.67;;;6.93;;
70165;SDS011;57541;47.408;18.822;2023-05-07T02:26:33;10.10;;;6.55;;
70165;SDS011;57541;47.408;18.822;2023-05-07T02:27:05;10.52;;;6.75;;
70165;SDS011;57541;47.408;18.822;2023-05-07T02:27:37;10.98;;;6.97;;
70165;SDS011;57541;47.408;18.822;2023-05-07T02:28:08;10.88;;;6.25;;
70165;SDS011;57541;47.408;18.822;2023-05-07T02:28:40;11.55;;;6.35;;
70165;SDS011;57541;47.408;18.822;2023-05-07T02:29:12;10.98;;;6.95;;
70165;SDS011;57541;47.408;18.822;2023-05-07T02:29:43;10.23;;;6.10;;
70165;SDS011;57541;47.408;18.822;2023-05-07T02:30:15;10.90;;;6.93;;
70165;SDS011;57541;47.408;18.822;2023-05-07T02:30:47;10.43;;;6.55;;
70165;SDS011;57541;47.408;18.822;2023-05-07T02:31:18;9.63;;;6.07;;
70165;SDS011;57541;47.408;18.822;2023-05-07T02:31:50;10.10;;;6.82;;
70165;SDS011;57541;47.408;18.822;2023-05-07T02:32:24;9.65;;;6.35;;
70165;SDS011;57541;47.408;18.822;2023-05-07T02:32:56;10.45;;;6.38;;
70165;SDS011;57541;47.408;18.822;2023-05-07T02:33:27;9.80;;;6.10;;
70165;SDS011;57541;47.408;18.822;2023-05-07T02:34:00;9.55;;;5.97;;
70165;SDS011;57541;47.408;18.822;2023-05-07T02:34:31;10.48;;;6.25;;
70165;SDS011;57541;47.408;18.822;2023-05-07T02:35:04;11.75;;;6.60;;
70165;SDS011;57541;47.408;18.822;2023-05-07T02:35:36;10.85;;;6.50;;
70165;SDS011;57541;47.408;18.822;2023-05-07T02:36:08;10.35;;;6.40;;
70165;SDS011;57541;47.408;18.822;2023-05-07T02:36:41;9.70;;;6.40;;
70165;SDS011;57541;47.408;18.822;2023-05-07T02:37:12;9.68;;;5.88;;
70165;SDS011;57541;47.408;18.822;2023-05-07T02:37:44;11.82;;;6.82;;
70165;SDS011;57541;47.408;18.822;2023-05-07T02:38:16;12.00;;;6.40;;
70165;SDS011;57541;47.408;18.822;2023-05-07T02:38:47;11.77;;;6.80;;
70165;SDS011;57541;47.408;18.822;2023-05-07T02:39:19;11.05;;;7.20;;
70165;SDS011;57541;47.408;18.822;2023-05-07T02:39:51;11.45;;;7.25;;
70165;SDS011;57541;47.408;18.822;2023-05-07T02:40:22;11.35;;;7.53;;
70165;SDS011;57541;47.408;18.822;2023-05-07T02:40:54;14.65;;;8.07;;
70165;SDS011;57541;47.408;18.822;2023-05-07T02:41:26;11.85;;;7.10;;
70165;SDS011;57541;47.408;18.822;2023-05-07T02:41:59;10.95;;;7.10;;
70165;SDS011;57541;47.408;18.822;2023-05-07T02:42:31;12.27;;;7.20;;
70165;SDS011;57541;47.408;18.822;2023-05-07T02:43:02;13.32;;;8.02;;
70165;SDS011;57541;47.408;18.822;2023-05-07T02:43:34;13.98;;;8.20;;
70165;SDS011;57541;47.408;18.822;2023-05-07T02:44:06;13.30;;;8.00;;
70165;SDS011;57541;47.408;18.822;2023-05-07T02:44:37;13.55;;;8.73;;
70165;SDS011;57541;47.408;18.822;2023-05-07T02:45:09;13.10;;;8.38;;
70165;SDS011;57541;47.408;18.822;2023-05-07T02:45:41;13.23;;;8.15;;
70165;SDS011;57541;47.408;18.822;2023-05-07T02:46:14;13.75;;;8.48;;
70165;SDS011;57541;47.408;18.822;2023-05-07T02:46:47;12.85;;;7.93;;
70165;SDS011;57541;47.408;18.822;2023-05-07T02:47:18;12.70;;;8.07;;
70165;SDS011;57541;47.408;18.822;2023-05-07T02:47:50;12.90;;;8.50;;
70165;SDS011;57541;47.408;18.822;2023-05-07T02:48:22;13.45;;;9.02;;
70165;SDS011;57541;47.408;18.822;2023-05-07T02:48:54;13.25;;;8.32;;
70165;SDS011;57541;47.408;18.822;2023-05-07T02:49:25;13.45;;;8.20;;
70165;SDS011;57541;47.408;18.822;2023-05-07T02:49:57;11.85;;;7.88;;
70165;SDS011;57541;47.408;18.822;2023-05-07T02:50:29;12.70;;;7.90;;
70165;SDS011;57541;47.408;18.822;2023-05-07T02:51:00;11.52;;;7.60;;
70165;SDS011;57541;47.408;18.822;2023-05-07T02:51:33;12.00;;;7.97;;
70165;SDS011;57541;47.408;18.822;2023-05-07T02:52:05;11.07;;;7.20;;
70165;SDS011;57541;47.408;18.822;2023-05-07T02:52:36;11.73;;;7.03;;
70165;SDS011;57541;47.408;18.822;2023-05-07T02:53:08;11.38;;;7.30;;
70165;SDS011;57541;47.408;18.822;2023-05-07T02:53:40;12.82;;;7.13;;
70165;SDS011;57541;47.408;18.822;2023-05-07T02:54:12;10.57;;;7.32;;
70165;SDS011;57541;47.408;18.822;2023-05-07T02:54:43;10.20;;;6.70;;
70165;SDS011;57541;47.408;18.822;2023-05-07T02:55:15;11.50;;;7.07;;
70165;SDS011;57541;47.408;18.822;2023-05-07T02:55:46;10.40;;;6.50;;
70165;SDS011;57541;47.408;18.822;2023-05-07T02:56:18;13.75;;;6.53;;
70165;SDS011;57541;47.408;18.822;2023-05-07T02:56:50;11.68;;;6.82;;
70165;SDS011;57541;47.408;18.822;2023-05-07T02:57:21;11.35;;;7.07;;
70165;SDS011;57541;47.408;18.822;2023-05-07T02:57:53;10.23;;;6.72;;
70165;SDS011;57541;47.408;18.822;2023-05-07T02:58:25;10.95;;;6.93;;
70165;SDS011;57541;47.408;18.822;2023-05-07T02:58:57;12.23;;;7.03;;
70165;SDS011;57541;47.408;18.822;2023-05-07T02:59:29;10.80;;;6.90;;
70165;SDS011;57541;47.408;18.822;2023-05-07T03:00:09;10.45;;;6.32;;
70165;SDS011;57541;47.408;18.822;2023-05-07T03:00:45;10.95;;;6.57;;
70165;SDS011;57541;47.408;18.822;2023-05-07T03:01:17;11.48;;;6.63;;
70165;SDS011;57541;47.408;18.822;2023-05-07T03:01:48;12.02;;;6.78;;
70165;SDS011;57541;47.408;18.822;2023-05-07T03:02:20;10.98;;;6.78;;
70165;SDS011;57541;47.408;18.822;2023-05-07T03:02:52;12.82;;;6.95;;
70165;SDS011;57541;47.408;18.822;2023-05-07T03:03:23;10.98;;;6.90;;
70165;SDS011;57541;47.408;18.822;2023-05-07T03:03:55;12.32;;;7.50;;
70165;SDS011;57541;47.408;18.822;2023-05-07T03:04:27;12.10;;;7.47;;
70165;SDS011;57541;47.408;18.822;2023-05-07T03:04:59;10.55;;;7.47;;
70165;SDS011;57541;47.408;18.822;2023-05-07T03:05:30;12.60;;;7.63;;
70165;SDS011;57541;47.408;18.822;2023-05-07T03:06:02;13.60;;;7.93;;
70165;SDS011;57541;47.408;18.822;2023-05-07T03:06:34;12.98;;;8.45;;
70165;SDS011;57541;47.408;18.822;2023-05-07T03:07:06;13.27;;;8.15;;
70165;SDS011;57541;47.408;18.822;2023-05-07T03:07:37;13.70;;;8.25;;
70165;SDS011;57541;47.408;18.822;2023-05-07T03:08:09;14.20;;;8.32;;
70165;SDS011;57541;47.408;18.822;2023-05-07T03:08:41;12.57;;;8.15;;
70165;SDS011;57541;47.408;18.822;2023-05-07T03:09:13;14.35;;;8.55;;
70165;SDS011;57541;47.408;18.822;2023-05-07T03:09:44;13.32;;;8.55;;